Time;durP1;ratioP1;P1;durP2;ratioP2;P2;SDS_P1;SDS_P2;PMS_P1;PMS_P2;Temp;Humidity;BMP_temperature;BMP_pressure;BME280_temperature;BME280_humidity;BME280_pressure;Samples;Min_cycle;Max_cycle;Signal;HPM_P1;HPM_P2
2021/07/12 00:00:22;;;;;;;5.72;3.78;;;15.90;99.90;;;14.55;91.16;101085.66;3519523;39;102321;-40
2021/07/12 00:02:50;;;;;;;5.22;3.70;;;15.90;99.90;;;14.51;91.05;101082.53;3519437;39;102402;-40
2021/07/12 00:05:19;;;;;;;5.45;3.83;;;15.90;99.90;;;14.49;91.10;101084.69;3519221;39;103179;-40
2021/07/12 00:07:52;;;;;;;7.65;3.75;;;15.80;99.90;;;14.47;91.07;101077.75;3519463;40;102690;-40
2021/07/12 00:10:25;;;;;;;4.93;3.50;;;15.80;99.90;;;14.45;91.12;101074.38;3518927;40;102328;-40
2021/07/12 00:12:54;;;;;;;6.45;3.65;;;15.80;99.90;;;14.42;91.42;101075.69;3518958;40;102375;-40
2021/07/12 00:15:24;;;;;;;4.45;3.40;;;15.80;99.90;;;14.41;91.53;101079.53;3519145;39;103246;-40
2021/07/12 00:17:52;;;;;;;6.47;3.70;;;15.80;99.90;;;14.39;91.60;101078.91;3518877;39;104321;-40
2021/07/12 00:20:21;;;;;;;5.00;3.70;;;15.70;99.90;;;14.38;91.55;101082.72;3519180;39;103196;-40
2021/07/12 00:22:50;;;;;;;5.18;3.90;;;15.80;99.90;;;14.36;91.39;101080.22;3519153;40;103334;-40
2021/07/12 00:25:22;;;;;;;5.82;3.53;;;15.70;99.90;;;14.34;91.48;101073.28;3520458;39;102463;-40
2021/07/12 00:27:50;;;;;;;4.25;3.40;;;15.70;99.90;;;14.33;91.26;101075.19;3520770;39;102479;-40
2021/07/12 00:30:22;;;;;;;7.43;3.88;;;15.70;99.90;;;14.32;91.10;101064.41;3520882;39;102209;-40
2021/07/12 00:32:53;;;;;;;4.55;3.40;;;15.70;99.90;;;14.34;91.75;101056.81;3520696;39;102394;-39
2021/07/12 00:35:23;;;;;;;5.28;3.60;;;15.70;99.90;;;14.35;91.94;101064.00;3520860;39;102322;-40
2021/07/12 00:37:52;;;;;;;4.90;3.47;;;15.70;99.90;;;14.33;92.09;101063.38;3520323;39;102291;-41
2021/07/12 00:40:24;;;;;;;4.38;3.30;;;15.70;99.90;;;14.30;92.05;101058.34;3520380;39;102972;-39
2021/07/12 00:42:52;;;;;;;4.57;3.40;;;15.70;99.90;;;14.24;92.01;101060.94;3527554;39;102380;-40
2021/07/12 00:45:29;;;;;;;6.60;3.63;;;15.60;99.90;;;14.26;92.03;101060.72;3519888;40;104093;-40
2021/07/12 00:47:59;;;;;;;5.35;3.63;;;15.60;99.90;;;14.23;92.07;101059.25;3520532;39;103686;-39
2021/07/12 00:51:06;;;;;;;5.35;3.60;;;15.60;99.90;;;14.18;92.06;101050.91;3514358;39;102838;-39
2021/07/12 00:53:33;;;;;;;5.32;3.58;;;15.60;99.90;;;14.19;91.97;101058.06;3520633;39;102350;-40
2021/07/12 00:56:05;;;;;;;7.88;3.70;;;15.60;99.90;;;14.15;91.99;101051.34;3520318;39;103505;-39
2021/07/12 00:58:32;;;;;;;5.22;3.75;;;15.50;99.90;;;14.14;92.02;101052.44;3520309;39;102385;-40
2021/07/12 01:01:05;;;;;;;4.63;3.78;;;15.50;99.90;;;14.08;91.93;101039.66;3519018;40;103412;-39
2021/07/12 01:03:34;;;;;;;5.47;3.10;;;15.50;99.90;;;14.09;92.05;101038.56;3520590;39;102770;-40
2021/07/12 01:06:05;;;;;;;5.82;3.50;;;15.50;99.90;;;14.05;92.01;101031.84;3520252;39;104039;-40
2021/07/12 01:08:33;;;;;;;5.30;3.88;;;15.40;99.90;;;14.04;92.05;101038.41;3519035;40;103076;-42
2021/07/12 01:11:44;;;;;;;4.65;3.67;;;15.40;99.90;;;14.02;91.93;101030.44;3520433;39;102592;-39
2021/07/12 01:14:39;;;;;;;5.82;3.33;;;15.40;99.90;;;14.02;92.20;101029.56;3520057;39;102417;-39
2021/07/12 01:18:06;;;;;;;6.07;3.67;;;15.40;99.90;;;13.99;92.19;101030.03;3518965;40;102397;-40
2021/07/12 01:21:29;;;;;;;4.45;3.40;;;15.40;99.90;;;13.97;92.06;101034.91;3517191;40;102455;-40
2021/07/12 01:24:24;;;;;;;5.00;3.70;;;15.30;99.90;;;13.93;92.23;101020.84;3650316;22;103460;-40
2021/07/12 01:27:18;;;;;;;4.40;3.28;;;15.30;99.90;;;13.94;92.22;101017.03;3519927;40;102164;-41
2021/07/12 01:30:12;;;;;;;4.65;3.38;;;15.30;99.90;;;13.93;92.22;101018.09;3519859;39;103182;-41
2021/07/12 01:33:10;;;;;;;4.97;3.40;;;15.30;99.90;;;13.92;92.34;101017.25;3517259;40;102573;-41
2021/07/12 01:36:11;;;;;;;7.43;3.97;;;15.30;99.90;;;13.88;92.10;101013.28;3508743;40;102333;-43
2021/07/12 01:39:02;;;;;;;6.22;3.70;;;15.30;99.90;;;13.87;92.42;101010.78;3509313;40;102437;-41
2021/07/12 01:41:55;;;;;;;6.80;3.80;;;15.30;99.90;;;13.84;92.42;101009.34;3509203;40;105170;-40
2021/07/12 01:45:08;;;;;;;6.20;3.97;;;15.20;99.90;;;13.80;92.38;101002.66;3510475;40;102650;-41
2021/07/12 01:48:06;;;;;;;6.25;4.13;;;15.20;99.90;;;13.75;92.24;100997.84;3509328;40;103784;-41
2021/07/12 01:50:53;;;;;;;8.05;4.10;;;15.10;99.90;;;13.73;92.23;101002.72;3509356;40;104466;-43
2021/07/12 01:53:48;;;;;;;5.18;3.67;;;15.10;99.90;;;13.70;92.21;101002.34;3510213;40;103176;-41
2021/07/12 01:56:33;;;;;;;5.85;4.50;;;15.10;99.90;;;13.67;92.34;100998.16;3509107;40;102322;-41
2021/07/12 01:59:33;;;;;;;5.63;3.80;;;15.00;99.90;;;13.64;92.39;100996.69;3517385;40;102234;-41
2021/07/12 02:02:07;;;;;;;6.05;4.45;;;15.00;99.90;;;13.62;92.25;100987.88;3509190;40;104293;-43
2021/07/12 02:04:45;;;;;;;6.45;4.00;;;15.00;99.90;;;13.62;92.62;100987.88;3510043;40;104958;-41
2021/07/12 02:07:16;;;;;;;5.57;4.30;;;15.00;99.90;;;13.58;92.59;100980.31;3508919;40;102272;-40
2021/07/12 02:09:47;;;;;;;5.05;4.00;;;15.00;99.90;;;13.59;92.40;100985.59;3517541;40;106088;-41
2021/07/12 02:12:18;;;;;;;5.35;3.92;;;15.00;99.90;;;13.57;92.30;100985.00;3510324;40;102357;-41
2021/07/12 02:14:51;;;;;;;6.20;4.57;;;15.00;99.90;;;13.55;92.31;100991.75;3510142;40;104408;-41
2021/07/12 02:17:22;;;;;;;6.53;4.25;;;14.90;99.90;;;13.52;92.23;100998.50;3510236;40;102574;-41
2021/07/12 02:20:03;;;;;;;5.35;4.03;;;14.90;99.90;;;13.50;92.33;100995.16;3508903;40;102310;-41
2021/07/12 02:22:35;;;;;;;5.70;4.43;;;14.90;99.90;;;13.49;92.31;100998.97;3509062;40;102567;-41
2021/07/12 02:25:15;;;;;;;6.53;4.50;;;14.80;99.90;;;13.48;92.42;100989.06;3509021;40;103193;-41
2021/07/12 02:27:44;;;;;;;6.90;4.43;;;14.90;99.90;;;13.47;92.36;100993.75;3510151;40;102385;-41
2021/07/12 02:30:15;;;;;;;6.70;5.10;;;14.90;99.90;;;13.42;92.56;100981.75;3510027;40;102443;-40
2021/07/12 02:32:46;;;;;;;5.53;4.30;;;14.80;99.90;;;13.42;92.70;100984.47;3510428;40;103286;-40
2021/07/12 02:35:16;;;;;;;7.20;4.32;;;14.80;99.90;;;13.42;92.68;100981.75;3509785;40;104065;-41
2021/07/12 02:37:49;;;;;;;7.47;4.30;;;14.80;99.90;;;13.38;92.62;100982.19;3509798;40;102422;-41
2021/07/12 02:40:20;;;;;;;6.13;4.28;;;14.80;99.90;;;13.36;92.48;100981.59;3508782;40;103158;-40
2021/07/12 02:42:52;;;;;;;8.18;4.43;;;14.80;99.90;;;13.36;92.80;100983.47;3510136;40;102526;-43
2021/07/12 02:45:24;;;;;;;6.70;4.38;;;14.80;99.90;;;13.31;92.75;100975.13;3510063;40;102309;-42
2021/07/12 02:47:54;;;;;;;5.57;4.35;;;14.70;99.90;;;13.33;92.80;100979.31;3509599;40;102545;-43
2021/07/12 02:50:27;;;;;;;5.65;4.45;;;14.70;99.90;;;13.34;93.22;100983.72;3509056;40;104138;-41
2021/07/12 02:53:11;;;;;;;6.05;4.60;;;14.70;99.90;;;13.33;93.23;100984.78;3509029;40;103601;-41
2021/07/12 02:55:41;;;;;;;8.70;5.13;;;14.70;99.90;;;13.32;93.20;100974.91;3508954;40;103337;-41
2021/07/12 02:58:09;;;;;;;7.93;5.38;;;14.70;99.90;;;13.32;93.44;100976.78;3509050;40;103324;-41
2021/07/12 03:00:38;;;;;;;7.65;5.57;;;14.70;99.90;;;13.33;93.70;100978.47;3509907;40;105198;-40
2021/07/12 03:03:06;;;;;;;7.93;5.35;;;14.70;99.90;;;13.29;93.63;100967.13;3509745;40;102568;-40
2021/07/12 03:05:33;;;;;;;8.60;5.60;;;14.70;99.90;;;13.28;93.80;100961.88;3509462;40;103213;-43
2021/07/12 03:08:22;;;;;;;9.52;5.60;;;14.70;99.90;;;13.30;93.66;100976.19;3517145;40;102373;-44
2021/07/12 03:10:59;;;;;;;7.63;5.63;;;14.70;99.90;;;13.28;93.48;100970.09;3509076;40;102777;-40
2021/07/12 03:13:54;;;;;;;8.55;5.97;;;14.70;99.90;;;13.30;93.59;100978.91;3508832;40;103358;-41
2021/07/12 03:16:25;;;;;;;9.68;5.68;;;14.70;99.90;;;13.29;93.93;100971.75;3509014;40;103843;-41
2021/07/12 03:18:59;;;;;;;8.75;5.43;;;14.70;99.90;;;13.29;93.79;100966.28;3509438;40;103104;-40
2021/07/12 03:21:28;;;;;;;8.27;5.05;;;14.70;99.90;;;13.27;94.07;100954.72;3509680;40;103126;-40
2021/07/12 03:24:01;;;;;;;8.32;5.85;;;14.70;99.90;;;13.27;93.97;100939.13;3516428;40;103416;-40
2021/07/12 03:26:43;;;;;;;8.32;6.07;;;14.70;99.90;;;13.28;93.99;100943.53;3508867;40;103405;-41
2021/07/12 03:29:14;;;;;;;11.35;7.32;;;14.70;99.90;;;13.30;94.13;100935.94;3509432;40;103055;-40
2021/07/12 03:31:44;;;;;;;11.25;7.03;;;14.70;99.90;;;13.30;94.05;100938.66;3509500;40;102282;-41
2021/07/12 03:34:16;;;;;;;9.25;6.82;;;14.70;99.90;;;13.32;94.04;100947.50;3509457;40;103350;-41
2021/07/12 03:36:47;;;;;;;8.77;6.57;;;14.70;99.90;;;13.32;94.09;100939.28;3508590;40;102303;-42
2021/07/12 03:39:16;;;;;;;8.38;6.40;;;14.70;99.90;;;13.31;94.23;100948.56;3509611;40;102355;-42
2021/07/12 03:41:44;;;;;;;10.57;6.85;;;14.70;99.90;;;13.32;94.21;100943.91;3509648;40;102274;-40
2021/07/12 03:44:12;;;;;;;9.32;6.85;;;14.70;99.90;;;13.29;93.94;100938.88;3509327;40;102455;-41
2021/07/12 03:46:44;;;;;;;;;;;14.70;99.90;;;13.34;93.88;100948.09;3510228;40;102700;-40
2021/07/12 03:49:16;;;;;;;9.07;6.85;;;14.70;99.90;;;13.36;93.81;100947.84;3508938;40;102835;-40
2021/07/12 03:51:50;;;;;;;8.65;6.75;;;14.70;99.90;;;13.36;93.90;100945.13;3509268;40;105043;-40
2021/07/12 03:54:18;;;;;;;9.05;6.57;;;14.70;99.90;;;13.36;94.00;100945.97;3509550;40;102278;-41
2021/07/12 03:56:46;;;;;;;9.85;6.82;;;14.70;99.90;;;13.34;94.10;100936.28;3509572;40;103254;-41
2021/07/12 03:59:14;;;;;;;9.70;7.18;;;14.70;99.90;;;13.40;94.10;100940.03;3510885;40;102395;-41
2021/07/12 04:01:42;;;;;;;10.65;7.45;;;14.70;99.90;;;13.41;93.93;100938.97;3512795;40;102272;-41
2021/07/12 04:04:10;;;;;;;11.57;7.53;;;14.80;99.90;;;13.44;93.86;100938.53;3512463;40;102423;-43
2021/07/12 04:06:41;;;;;;;10.25;7.45;;;14.80;99.90;;;13.47;94.01;100938.06;3512667;40;102301;-41
2021/07/12 04:09:08;;;;;;;10.43;7.78;;;14.80;99.90;;;13.51;94.19;100936.53;3512978;40;103213;-40
2021/07/12 04:11:36;;;;;;;11.18;8.27;;;14.80;99.90;;;13.56;94.33;100928.50;3512814;40;102259;-41
2021/07/12 04:14:05;;;;;;;10.15;7.75;;;14.80;99.90;;;13.60;94.46;100926.97;3512339;40;102415;-40
2021/07/12 04:16:32;;;;;;;10.70;8.23;;;14.90;99.90;;;13.69;94.83;100921.16;3512211;40;102223;-44
2021/07/12 04:18:59;;;;;;;11.32;8.20;;;15.00;99.90;;;13.74;95.04;100918.56;3512760;40;102731;-40
2021/07/12 04:21:27;;;;;;;11.88;8.88;;;15.10;99.90;;;13.79;95.07;100922.28;3512524;40;102169;-40
2021/07/12 04:23:55;;;;;;;;;;;15.10;99.90;;;13.85;94.93;100925.16;3513330;40;102382;-41
2021/07/12 04:26:22;;;;;;;11.18;8.27;;;15.10;99.90;;;13.90;95.14;100926.13;3512665;40;103315;-40
2021/07/12 04:28:49;;;;;;;11.60;8.35;;;15.20;99.90;;;13.95;95.08;100931.75;3512777;40;102343;-41
2021/07/12 04:31:17;;;;;;;12.07;8.18;;;15.20;99.90;;;14.03;95.19;100933.34;3512666;40;102146;-43
2021/07/12 04:33:44;;;;;;;12.65;8.90;;;15.30;99.90;;;14.10;94.93;100930.50;3513080;40;102473;-41
2021/07/12 04:36:13;;;;;;;12.25;8.70;;;15.30;99.90;;;14.19;95.13;100931.84;3512700;40;102606;-40
2021/07/12 04:38:40;;;;;;;11.95;9.32;;;15.40;99.90;;;14.29;95.25;100941.41;3512805;40;102419;-41
2021/07/12 04:41:07;;;;;;;14.38;9.40;;;15.50;99.90;;;14.38;95.25;100940.00;3512647;40;103165;-40
2021/07/12 04:43:35;;;;;;;12.05;8.77;;;15.60;99.90;;;14.50;95.34;100931.81;3512523;40;102457;-40
2021/07/12 04:46:03;;;;;;;13.73;9.88;;;15.70;99.90;;;14.60;95.60;100928.47;3512497;40;102566;-41
2021/07/12 04:48:32;;;;;;;14.10;10.10;;;15.80;99.90;;;14.72;95.54;100921.09;3512686;40;102231;-40
2021/07/12 04:51:00;;;;;;;15.70;10.65;;;15.90;99.90;;;14.83;95.90;100922.19;3512616;40;104233;-42
2021/07/12 04:53:27;;;;;;;14.25;10.95;;;16.00;99.90;;;14.93;95.90;100924.34;3512459;40;103755;-41
2021/07/12 04:55:54;;;;;;;15.77;11.48;;;16.10;99.90;;;15.01;96.07;100921.22;3512687;40;104483;-40
2021/07/12 04:58:22;;;;;;;14.20;10.50;;;16.20;99.90;;;15.09;95.78;100915.34;3512430;40;102227;-44
2021/07/12 05:00:49;;;;;;;16.50;11.45;;;16.30;99.90;;;15.21;95.87;100914.50;3512411;40;103466;-40
2021/07/12 05:03:29;;;;;;;14.02;11.07;;;16.40;99.90;;;15.32;95.99;100905.41;3512535;40;102878;-40
2021/07/12 05:05:57;;;;;;;15.02;11.55;;;16.50;99.90;;;15.43;95.88;100906.44;3512605;40;102314;-40
2021/07/12 05:08:25;;;;;;;15.75;11.20;;;16.50;99.90;;;15.53;95.75;100912.19;3512612;40;103662;-40
2021/07/12 05:10:52;;;;;;;17.45;12.27;;;16.60;99.90;;;15.66;95.90;100905.56;3511226;40;103181;-41
2021/07/12 05:13:20;;;;;;;15.70;11.93;;;16.80;99.90;;;15.78;95.60;100911.03;3510519;40;102478;-41
2021/07/12 05:15:48;;;;;;;16.52;12.30;;;16.90;99.90;;;15.91;95.51;100901.66;3510386;40;102290;-41
2021/07/12 05:18:16;;;;;;;18.02;12.60;;;17.00;99.90;;;16.01;94.50;100901.00;3511022;40;102305;-41
2021/07/12 05:20:43;;;;;;;16.33;12.20;;;17.10;99.90;;;16.13;94.34;100914.69;3510748;40;103347;-41
2021/07/12 05:23:11;;;;;;;15.13;12.07;;;17.20;99.90;;;16.23;93.79;100908.53;3510907;40;102498;-40
2021/07/12 05:25:38;;;;;;;16.20;11.63;;;17.30;99.90;;;16.34;93.40;100898.53;3510246;40;102263;-41
2021/07/12 05:28:06;;;;;;;16.13;11.98;;;17.40;99.90;;;16.38;92.86;100895.03;3510454;40;102618;-41
2021/07/12 05:30:34;;;;;;;13.98;10.73;;;17.50;99.90;;;16.51;91.83;100901.28;3510731;40;103113;-41
2021/07/12 05:33:03;;;;;;;16.77;11.82;;;17.50;99.90;;;16.58;91.12;100899.22;3510356;40;103677;-40
2021/07/12 05:35:30;;;;;;;17.25;11.35;;;17.70;99.90;;;16.68;90.70;100893.88;3509528;40;103361;-39
2021/07/12 05:37:58;;;;;;;15.00;11.50;;;17.70;99.90;;;16.82;90.12;100893.50;3510332;40;102449;-44
2021/07/12 05:40:25;;;;;;;15.77;11.57;;;17.80;99.90;;;16.97;90.14;100903.91;3510243;40;104242;-41
2021/07/12 05:42:53;;;;;;;14.13;10.95;;;17.90;99.90;;;17.07;88.45;100894.97;3510770;40;103555;-41
2021/07/12 05:45:20;;;;;;;15.63;10.70;;;18.00;99.90;;;17.23;87.92;100901.53;3510126;40;102317;-44
2021/07/12 05:47:48;;;;;;;14.73;11.45;;;18.20;99.90;;;17.41;88.13;100900.41;3510769;40;102506;-41
2021/07/12 05:50:15;;;;;;;16.10;10.52;;;18.30;99.90;;;17.51;85.92;100902.47;3509484;40;102216;-41
2021/07/12 05:52:43;;;;;;;14.60;10.02;;;18.50;99.90;;;17.63;84.77;100902.28;3510041;40;102956;-42
2021/07/12 05:55:12;;;;;;;13.40;9.57;;;18.50;99.90;;;17.64;84.35;100895.72;3510426;40;102299;-41
2021/07/12 05:57:39;;;;;;;14.32;9.70;;;18.60;99.90;;;17.83;84.34;100901.72;3510579;40;102419;-41
2021/07/12 06:00:10;;;;;;;14.90;9.82;;;18.70;99.90;;;18.02;84.80;100902.22;3511101;40;103355;-40
2021/07/12 06:02:43;;;;;;;11.75;8.63;;;18.90;99.90;;;18.19;83.31;100899.31;3510492;40;102343;-44
2021/07/12 06:05:11;;;;;;;13.57;9.45;;;19.00;99.90;;;18.35;82.87;100900.28;3510416;40;103321;-41
2021/07/12 06:07:39;;;;;;;13.63;9.35;;;19.20;99.90;;;18.47;81.22;100900.13;3510763;40;102426;-41
2021/07/12 06:10:08;;;;;;;11.93;8.88;;;19.30;99.90;;;18.49;79.31;100899.88;3510578;40;104206;-41
2021/07/12 06:12:36;;;;;;;11.70;8.95;;;19.40;99.90;;;18.58;79.24;100905.75;3510318;40;102510;-41
2021/07/12 06:15:05;;;;;;;10.95;8.32;;;19.40;99.90;;;18.65;79.17;100901.63;3510363;40;102198;-41
2021/07/12 20:10:43;;;;;;;13.32;9.05;;;20.10;99.90;;;18.38;84.62;100615.31;3549390;39;101798;-42
2021/07/12 20:13:11;;;;;;;12.82;9.82;;;19.70;99.90;;;18.37;85.33;100619.16;3537324;39;102412;-42
2021/07/12 20:15:40;;;;;;;15.55;10.82;;;19.60;99.90;;;18.35;85.02;100626.91;3536877;39;102237;-42
2021/07/12 20:18:09;;;;;;;16.90;11.30;;;19.60;99.90;;;18.35;85.57;100628.84;3537268;39;102853;-41
2021/07/12 20:20:37;;;;;;;15.27;10.27;;;19.60;99.90;;;18.31;86.29;100620.25;3537238;39;102581;-42
2021/07/12 20:23:11;;;;;;;15.60;9.77;;;19.50;99.90;;;18.31;86.74;100624.97;3537079;39;102340;-42
2021/07/12 20:25:40;;;;;;;15.60;10.02;;;19.50;99.90;;;18.32;87.30;100627.44;3536880;39;103187;-42
2021/07/12 20:28:09;;;;;;;17.15;10.98;;;19.60;99.90;;;18.34;87.34;100619.72;3537232;39;102245;-42
2021/07/12 20:30:37;;;;;;;14.38;10.68;;;19.60;99.90;;;18.36;87.63;100622.22;3537719;39;103302;-42
2021/07/12 20:33:05;;;;;;;13.77;9.57;;;19.60;99.90;;;18.36;87.53;100636.03;3537296;39;102646;-43
2021/07/12 20:35:34;;;;;;;14.30;9.25;;;19.60;99.90;;;18.38;87.50;100633.81;3537196;39;102311;-43
2021/07/12 20:38:02;;;;;;;15.18;9.73;;;19.60;99.90;;;18.40;87.75;100637.97;3536724;39;102159;-42
2021/07/12 20:40:29;;;;;;;13.23;9.13;;;19.60;99.90;;;18.44;87.96;100629.16;3536782;39;102290;-43
2021/07/12 20:42:57;;;;;;;14.27;9.77;;;19.60;99.90;;;18.44;87.65;100621.69;3536964;39;103021;-42
2021/07/12 20:45:25;;;;;;;12.32;8.32;;;19.70;99.90;;;18.47;87.75;100626.66;3537093;39;102954;-42
2021/07/12 20:47:53;;;;;;;12.10;7.82;;;19.70;99.90;;;18.49;87.73;100623.66;3537352;39;102607;-42
2021/07/12 20:50:23;;;;;;;10.07;7.35;;;19.70;99.90;;;18.49;87.57;100623.66;3537495;39;102355;-42
2021/07/12 20:52:52;;;;;;;9.98;7.10;;;19.70;99.90;;;18.51;88.04;100613.97;3536860;39;102425;-42
2021/07/12 20:55:20;;;;;;;10.30;6.50;;;19.70;99.90;;;18.53;88.05;100617.28;3537040;39;103067;-42
2021/07/12 20:57:48;;;;;;;10.45;6.55;;;19.70;99.90;;;18.51;87.83;100615.91;3537175;39;102208;-41
2021/07/12 21:00:20;;;;;;;8.73;6.22;;;19.70;99.90;;;18.53;87.79;100616.47;3536864;39;102317;-43
2021/07/12 21:02:50;;;;;;;7.75;5.57;;;19.70;99.90;;;18.51;87.69;100611.22;3537164;39;102962;-42
2021/07/12 21:05:20;;;;;;;8.55;5.82;;;19.70;99.90;;;18.54;86.98;100613.44;3536781;39;103176;-43
2021/07/12 21:07:48;;;;;;;7.63;5.38;;;19.70;99.90;;;18.56;87.45;100610.41;3536972;39;102403;-42
2021/07/12 21:10:19;;;;;;;6.88;4.53;;;19.70;99.90;;;18.58;86.27;100607.38;3545580;39;102203;-42
2021/07/12 21:12:49;;;;;;;6.25;4.30;;;19.70;99.90;;;18.64;86.98;100615.41;3546740;39;103289;-42
2021/07/12 21:15:16;;;;;;;5.82;4.40;;;19.80;99.90;;;18.65;87.04;100608.75;3546789;39;103262;-42
2021/07/12 21:17:45;;;;;;;5.32;3.55;;;19.80;99.90;;;18.67;86.79;100620.38;3546910;39;102544;-43
2021/07/12 21:20:15;;;;;;;5.57;3.78;;;19.80;99.90;;;18.68;86.76;100610.16;3544946;39;102303;-42
2021/07/12 21:22:42;;;;;;;5.05;3.22;;;19.80;99.90;;;18.66;85.76;100610.41;3540500;39;102477;-43
2021/07/12 21:25:11;;;;;;;4.97;3.70;;;19.80;99.90;;;18.66;85.33;100613.19;3539834;39;102242;-43
2021/07/12 21:27:39;;;;;;;5.25;3.60;;;19.80;99.90;;;18.67;85.51;100602.97;3540221;39;102231;-44
2021/07/12 21:30:07;;;;;;;6.18;3.88;;;19.80;99.90;;;18.67;85.60;100598.28;3540055;39;103365;-46
2021/07/12 21:32:35;;;;;;;5.85;3.33;;;19.80;99.90;;;18.69;85.78;100598.00;3539981;39;102437;-42
2021/07/12 21:35:03;;;;;;;;;;;19.90;99.90;;;18.71;85.75;100589.47;3540534;39;102393;-42
2021/07/12 21:37:30;;;;;;;6.65;3.97;;;19.80;99.90;;;18.69;85.77;100598.00;3540120;39;102261;-44
2021/07/12 21:39:58;;;;;;;6.55;3.80;;;19.90;99.90;;;18.56;86.57;100566.22;3539921;39;103408;-42
2021/07/12 21:42:25;;;;;;;7.10;3.85;;;19.90;99.90;;;18.70;85.68;100596.91;3539907;39;102497;-42
2021/07/12 21:44:53;;;;;;;5.32;3.88;;;19.90;99.90;;;18.69;85.74;100598.81;3539522;39;102336;-42
2021/07/12 21:47:21;;;;;;;5.55;3.63;;;19.90;99.90;;;18.67;86.09;100586.41;3540048;39;102447;-42
2021/07/12 21:49:49;;;;;;;6.63;4.03;;;19.90;99.90;;;18.74;81.65;100589.72;3539827;39;102324;-42
2021/07/12 21:52:17;;;;;;;7.57;3.90;;;19.90;99.90;;;18.79;82.23;100602.72;3539920;39;103178;-42
2021/07/12 21:54:44;;;;;;;7.53;3.80;;;19.90;99.90;;;18.80;83.41;100601.63;3539810;39;103192;-42
2021/07/12 21:57:11;;;;;;;7.50;3.72;;;20.00;99.90;;;18.82;84.18;100604.94;3539970;39;102206;-46
2021/07/12 21:59:39;;;;;;;6.93;4.10;;;20.00;99.90;;;18.79;84.84;100603.53;3540014;39;102395;-43
2021/07/12 22:02:06;;;;;;;5.10;3.78;;;19.90;99.90;;;18.78;85.49;100599.13;3540395;39;102735;-43
2021/07/12 22:04:34;;;;;;;5.00;3.75;;;19.90;99.90;;;18.78;86.20;100607.41;3539790;39;102483;-42
2021/07/12 22:07:02;;;;;;;5.22;3.97;;;19.90;99.90;;;18.78;86.28;100601.06;3540087;39;102113;-42
2021/07/12 22:09:30;;;;;;;;;;;19.90;99.90;;;18.71;85.16;100592.22;3540530;39;102458;-43
2021/07/12 22:11:57;;;;;;;6.05;4.25;;;19.90;99.90;;;18.72;85.28;100593.88;3540502;39;102409;-42
2021/07/12 22:14:28;;;;;;;8.02;5.63;;;19.90;99.90;;;18.76;86.58;100604.09;3540146;39;103270;-43
2021/07/12 22:16:56;;;;;;;10.13;6.30;;;19.90;99.90;;;18.74;86.74;100606.31;3540300;39;102251;-43
2021/07/12 22:19:23;;;;;;;7.43;5.30;;;19.90;99.90;;;18.72;87.34;100602.19;3540086;39;103300;-42
2021/07/12 22:21:51;;;;;;;6.35;4.55;;;19.90;99.90;;;18.68;87.67;100599.13;3539717;39;102381;-44
2021/07/12 22:24:18;;;;;;;8.90;4.47;;;19.80;99.90;;;18.67;87.81;100614.03;3539684;39;102245;-42
2021/07/12 22:26:46;;;;;;;6.22;4.53;;;19.80;99.90;;;18.65;88.45;100610.72;3540002;39;102376;-42
2021/07/12 22:29:15;;;;;;;5.25;4.03;;;19.80;99.90;;;18.62;88.49;100603.78;3539553;39;102313;-42
2021/07/12 22:31:44;;;;;;;5.55;4.03;;;19.80;99.90;;;18.59;88.60;100604.34;3539776;39;102482;-42
2021/07/12 22:34:12;;;;;;;6.43;4.32;;;19.70;99.90;;;18.59;88.95;100606.28;3539284;39;102315;-44
2021/07/12 22:36:40;;;;;;;5.88;4.03;;;19.70;99.90;;;18.58;89.12;100604.63;3539738;39;102641;-42
2021/07/12 22:39:15;;;;;;;6.90;4.05;;;19.70;99.90;;;18.54;89.08;100596.03;3539900;39;103176;-42
2021/07/12 22:41:45;;;;;;;5.28;4.10;;;19.70;99.90;;;18.54;88.59;100596.03;3540209;39;102364;-42
2021/07/12 22:44:14;;;;;;;4.57;3.55;;;19.70;99.90;;;18.47;88.34;100585.25;3539966;39;102881;-42
2021/07/12 22:46:41;;;;;;;6.30;4.10;;;19.70;99.90;;;18.52;88.27;100592.72;3539773;39;102108;-42
2021/07/12 22:49:09;;;;;;;6.65;4.50;;;19.70;99.90;;;18.51;88.77;100596.59;3539966;39;102734;-40
2021/07/12 22:51:36;;;;;;;5.53;3.83;;;19.70;99.90;;;18.50;89.12;100595.75;3539539;39;102212;-40
2021/07/12 22:54:04;;;;;;;6.35;4.07;;;19.70;99.90;;;18.50;89.25;100584.69;3539590;39;104554;-40
2021/07/12 22:56:34;;;;;;;6.70;4.05;;;19.70;99.90;;;18.49;88.89;100583.03;3539626;39;102525;-41
2021/07/12 22:59:03;;;;;;;7.30;3.90;;;19.70;99.90;;;18.49;89.13;100579.47;3539480;39;103678;-40
2021/07/12 23:01:31;;;;;;;7.10;4.10;;;19.60;99.90;;;18.48;89.21;100580.56;3539812;39;102568;-40
2021/07/12 23:03:58;;;;;;;6.53;4.47;;;19.60;99.90;;;18.47;89.45;100578.91;3539878;39;102389;-39
2021/07/12 23:06:26;;;;;;;7.10;4.65;;;19.60;99.90;;;18.47;89.77;100579.72;3540024;39;102412;-40
2021/07/12 23:08:55;;;;;;;6.22;4.45;;;19.60;99.90;;;18.49;89.83;100576.69;3539727;39;103132;-41
2021/07/12 23:11:23;;;;;;;8.20;4.68;;;19.60;99.90;;;18.48;90.03;100578.63;3539717;39;102419;-40
2021/07/12 23:13:50;;;;;;;7.22;4.80;;;19.60;99.90;;;18.47;89.89;100568.66;3539568;39;103122;-40
2021/07/12 23:16:18;;;;;;;6.70;4.15;;;19.70;99.90;;;18.46;89.51;100568.97;3539474;39;103459;-40
2021/07/12 23:18:45;;;;;;;;;;;19.60;99.90;;;18.44;89.31;100569.22;3540565;39;103104;-40
2021/07/12 23:21:13;;;;;;;7.03;4.25;;;19.60;99.90;;;18.46;88.13;100568.97;3539862;39;102334;-39
2021/07/12 23:23:40;;;;;;;5.57;4.07;;;19.60;99.90;;;18.48;87.74;100570.31;3539582;39;102280;-40
2021/07/12 23:26:08;;;;;;;;;;;19.70;99.90;;;18.49;87.73;100565.66;3540240;39;102391;-41
2021/07/12 23:28:35;;;;;;;6.47;4.22;;;19.70;99.90;;;18.50;88.10;100567.31;3539511;39;102406;-40
2021/07/12 23:31:02;;;;;;;7.13;4.85;;;19.70;99.90;;;18.48;88.74;100569.50;3539957;39;102300;-42
2021/07/12 23:33:30;;;;;;;5.93;4.28;;;19.60;99.90;;;18.48;88.67;100566.75;3539620;39;104189;-40
2021/07/12 23:35:58;;;;;;;7.30;4.32;;;19.60;99.90;;;18.46;88.54;100572.53;3539229;39;102207;-41
2021/07/12 23:38:26;;;;;;;6.85;4.45;;;19.60;99.90;;;18.43;88.81;100575.84;3539404;39;104113;-40
2021/07/12 23:40:54;;;;;;;6.88;4.32;;;19.60;99.90;;;18.41;88.81;100580.81;3539935;39;102211;-41
2021/07/12 23:43:21;;;;;;;6.18;4.13;;;19.60;99.90;;;18.40;88.72;100576.38;3539436;39;102313;-42
2021/07/12 23:45:49;;;;;;;6.60;4.38;;;19.60;99.90;;;18.39;88.72;100563.69;3539658;39;102260;-40
2021/07/12 23:48:16;;;;;;;5.55;4.13;;;19.60;99.90;;;18.40;88.72;100573.63;3539439;39;102287;-40
2021/07/12 23:50:43;;;;;;;6.68;4.38;;;19.60;99.90;;;18.40;88.85;100562.59;3539835;39;102903;-41
2021/07/12 23:53:11;;;;;;;5.30;4.07;;;19.60;99.90;;;18.39;89.15;100567.25;3539353;39;102468;-40
2021/07/12 23:55:39;;;;;;;4.90;3.63;;;19.60;99.90;;;18.36;89.41;100565.03;3539350;39;102374;-40
2021/07/12 23:58:06;;;;;;;5.78;4.32;;;19.50;99.90;;;18.37;89.62;100571.41;3539452;39;102122;-40
